sensor_id;sensor_type;location;lat;lon;timestamp;P1;durP1;ratioP1;P2;durP2;ratioP2
78131;SDS011;67381;47.672;9.380;2024-02-28T00:02:07;29.90;;;15.02;;
78131;SDS011;67381;47.672;9.380;2024-02-28T00:04:34;25.83;;;14.07;;
78131;SDS011;67381;47.672;9.380;2024-02-28T00:07:01;24.13;;;13.50;;
78131;SDS011;67381;47.672;9.380;2024-02-28T00:09:28;24.20;;;14.55;;
78131;SDS011;67381;47.672;9.380;2024-02-28T00:11:55;26.67;;;14.25;;
78131;SDS011;67381;47.672;9.380;2024-02-28T00:14:22;23.60;;;13.77;;
78131;SDS011;67381;47.672;9.380;2024-02-28T00:16:49;26.60;;;13.05;;
78131;SDS011;67381;47.672;9.380;2024-02-28T00:19:17;24.40;;;13.77;;
78131;SDS011;67381;47.672;9.380;2024-02-28T00:21:45;24.05;;;13.30;;
78131;SDS011;67381;47.672;9.380;2024-02-28T00:24:12;28.10;;;15.45;;
78131;SDS011;67381;47.672;9.380;2024-02-28T00:26:43;28.10;;;16.38;;
78131;SDS011;67381;47.672;9.380;2024-02-28T00:29:10;29.13;;;15.27;;
78131;SDS011;67381;47.672;9.380;2024-02-28T00:31:37;26.92;;;14.15;;
78131;SDS011;67381;47.672;9.380;2024-02-28T00:34:04;26.95;;;14.70;;
78131;SDS011;67381;47.672;9.380;2024-02-28T00:36:31;23.08;;;14.40;;
78131;SDS011;67381;47.672;9.380;2024-02-28T00:39:02;26.63;;;14.93;;
78131;SDS011;67381;47.672;9.380;2024-02-28T00:41:30;29.40;;;15.25;;
78131;SDS011;67381;47.672;9.380;2024-02-28T00:43:57;24.90;;;13.38;;
78131;SDS011;67381;47.672;9.380;2024-02-28T00:46:24;22.88;;;13.95;;
78131;SDS011;67381;47.672;9.380;2024-02-28T00:48:51;26.25;;;15.70;;
78131;SDS011;67381;47.672;9.380;2024-02-28T00:51:18;25.27;;;14.32;;
78131;SDS011;67381;47.672;9.380;2024-02-28T00:53:46;28.50;;;14.40;;
78131;SDS011;67381;47.672;9.380;2024-02-28T00:56:13;27.83;;;16.55;;
78131;SDS011;67381;47.672;9.380;2024-02-28T00:58:40;26.65;;;14.65;;
78131;SDS011;67381;47.672;9.380;2024-02-28T01:01:07;23.83;;;15.05;;
78131;SDS011;67381;47.672;9.380;2024-02-28T01:03:34;27.50;;;14.23;;
78131;SDS011;67381;47.672;9.380;2024-02-28T01:06:01;29.95;;;15.55;;
78131;SDS011;67381;47.672;9.380;2024-02-28T01:08:30;24.80;;;13.55;;
78131;SDS011;67381;47.672;9.380;2024-02-28T01:10:57;26.65;;;14.70;;
78131;SDS011;67381;47.672;9.380;2024-02-28T01:13:25;28.05;;;14.07;;
78131;SDS011;67381;47.672;9.380;2024-02-28T01:15:52;28.15;;;14.20;;
78131;SDS011;67381;47.672;9.380;2024-02-28T01:18:20;25.38;;;14.27;;
78131;SDS011;67381;47.672;9.380;2024-02-28T01:20:48;29.02;;;15.18;;
78131;SDS011;67381;47.672;9.380;2024-02-28T01:23:15;25.75;;;15.40;;
78131;SDS011;67381;47.672;9.380;2024-02-28T01:25:42;27.50;;;16.45;;
78131;SDS011;67381;47.672;9.380;2024-02-28T01:28:09;27.08;;;16.00;;
78131;SDS011;67381;47.672;9.380;2024-02-28T01:30:36;23.40;;;14.50;;
78131;SDS011;67381;47.672;9.380;2024-02-28T01:33:03;22.98;;;13.85;;
78131;SDS011;67381;47.672;9.380;2024-02-28T01:35:30;23.92;;;12.95;;
78131;SDS011;67381;47.672;9.380;2024-02-28T01:37:57;29.55;;;16.17;;
78131;SDS011;67381;47.672;9.380;2024-02-28T01:40:24;28.42;;;16.10;;
78131;SDS011;67381;47.672;9.380;2024-02-28T01:42:51;24.70;;;14.30;;
78131;SDS011;67381;47.672;9.380;2024-02-28T01:45:18;27.20;;;14.77;;
78131;SDS011;67381;47.672;9.380;2024-02-28T01:47:46;28.92;;;15.77;;
78131;SDS011;67381;47.672;9.380;2024-02-28T01:50:13;28.73;;;15.30;;
78131;SDS011;67381;47.672;9.380;2024-02-28T01:52:40;28.55;;;14.55;;
78131;SDS011;67381;47.672;9.380;2024-02-28T01:55:07;24.80;;;15.30;;
78131;SDS011;67381;47.672;9.380;2024-02-28T01:57:36;25.63;;;15.52;;
78131;SDS011;67381;47.672;9.380;2024-02-28T02:00:04;26.25;;;15.90;;
78131;SDS011;67381;47.672;9.380;2024-02-28T02:02:32;30.15;;;15.60;;
78131;SDS011;67381;47.672;9.380;2024-02-28T02:04:59;30.85;;;15.93;;
78131;SDS011;67381;47.672;9.380;2024-02-28T02:07:26;23.42;;;12.77;;
78131;SDS011;67381;47.672;9.380;2024-02-28T02:09:53;25.48;;;14.98;;
78131;SDS011;67381;47.672;9.380;2024-02-28T02:12:21;30.35;;;15.10;;
78131;SDS011;67381;47.672;9.380;2024-02-28T02:14:48;29.27;;;16.05;;
78131;SDS011;67381;47.672;9.380;2024-02-28T02:17:15;27.48;;;15.05;;
78131;SDS011;67381;47.672;9.380;2024-02-28T02:19:42;24.70;;;16.20;;
78131;SDS011;67381;47.672;9.380;2024-02-28T02:22:10;25.35;;;14.93;;
78131;SDS011;67381;47.672;9.380;2024-02-28T02:24:38;25.30;;;15.02;;
78131;SDS011;67381;47.672;9.380;2024-02-28T02:27:05;26.70;;;15.23;;
78131;SDS011;67381;47.672;9.380;2024-02-28T02:29:32;27.73;;;15.60;;
78131;SDS011;67381;47.672;9.380;2024-02-28T02:31:59;29.45;;;15.48;;
78131;SDS011;67381;47.672;9.380;2024-02-28T02:34:26;28.42;;;16.20;;
78131;SDS011;67381;47.672;9.380;2024-02-28T02:36:53;26.92;;;14.63;;
78131;SDS011;67381;47.672;9.380;2024-02-28T02:39:21;26.08;;;15.25;;
78131;SDS011;67381;47.672;9.380;2024-02-28T02:41:48;25.65;;;16.33;;
78131;SDS011;67381;47.672;9.380;2024-02-28T02:44:15;25.58;;;15.20;;
78131;SDS011;67381;47.672;9.380;2024-02-28T02:46:42;26.48;;;15.48;;
78131;SDS011;67381;47.672;9.380;2024-02-28T02:49:09;27.23;;;17.50;;
78131;SDS011;67381;47.672;9.380;2024-02-28T02:51:36;23.88;;;14.75;;
78131;SDS011;67381;47.672;9.380;2024-02-28T02:54:03;25.30;;;14.55;;
78131;SDS011;67381;47.672;9.380;2024-02-28T02:56:30;26.35;;;17.13;;
78131;SDS011;67381;47.672;9.380;2024-02-28T02:58:57;23.45;;;13.30;;
78131;SDS011;67381;47.672;9.380;2024-02-28T03:01:24;25.13;;;14.50;;
78131;SDS011;67381;47.672;9.380;2024-02-28T03:03:51;25.95;;;14.25;;
78131;SDS011;67381;47.672;9.380;2024-02-28T03:06:19;25.05;;;14.15;;
78131;SDS011;67381;47.672;9.380;2024-02-28T03:08:46;28.45;;;15.27;;
78131;SDS011;67381;47.672;9.380;2024-02-28T03:11:13;26.02;;;14.55;;
78131;SDS011;67381;47.672;9.380;2024-02-28T03:13:41;26.08;;;14.20;;
78131;SDS011;67381;47.672;9.380;2024-02-28T03:16:08;24.20;;;14.82;;
78131;SDS011;67381;47.672;9.380;2024-02-28T03:18:35;26.27;;;14.95;;
78131;SDS011;67381;47.672;9.380;2024-02-28T03:21:02;23.98;;;15.35;;
78131;SDS011;67381;47.672;9.380;2024-02-28T03:23:29;28.83;;;15.57;;
78131;SDS011;67381;47.672;9.380;2024-02-28T03:25:56;26.70;;;14.48;;
78131;SDS011;67381;47.672;9.380;2024-02-28T03:28:23;24.75;;;14.77;;
78131;SDS011;67381;47.672;9.380;2024-02-28T03:30:50;24.35;;;14.80;;
78131;SDS011;67381;47.672;9.380;2024-02-28T03:33:17;24.40;;;14.82;;
78131;SDS011;67381;47.672;9.380;2024-02-28T03:35:44;26.90;;;14.00;;
78131;SDS011;67381;47.672;9.380;2024-02-28T03:38:12;24.13;;;13.70;;
78131;SDS011;67381;47.672;9.380;2024-02-28T03:40:39;24.80;;;14.05;;
78131;SDS011;67381;47.672;9.380;2024-02-28T03:43:06;26.00;;;14.82;;
78131;SDS011;67381;47.672;9.380;2024-02-28T03:45:36;31.00;;;15.45;;
78131;SDS011;67381;47.672;9.380;2024-02-28T03:48:05;25.05;;;13.77;;
78131;SDS011;67381;47.672;9.380;2024-02-28T03:50:32;25.67;;;15.05;;
78131;SDS011;67381;47.672;9.380;2024-02-28T03:52:59;26.55;;;15.40;;
78131;SDS011;67381;47.672;9.380;2024-02-28T03:55:26;25.02;;;15.45;;
78131;SDS011;67381;47.672;9.380;2024-02-28T03:57:54;29.85;;;16.90;;
78131;SDS011;67381;47.672;9.380;2024-02-28T04:00:21;27.35;;;14.13;;
78131;SDS011;67381;47.672;9.380;2024-02-28T04:02:48;27.50;;;15.27;;
78131;SDS011;67381;47.672;9.380;2024-02-28T04:05:15;29.05;;;14.90;;
78131;SDS011;67381;47.672;9.380;2024-02-28T04:07:44;30.38;;;15.18;;
78131;SDS011;67381;47.672;9.380;2024-02-28T04:10:11;26.80;;;15.88;;
78131;SDS011;67381;47.672;9.380;2024-02-28T04:12:38;30.60;;;15.95;;
78131;SDS011;67381;47.672;9.380;2024-02-28T04:15:05;26.92;;;15.07;;
78131;SDS011;67381;47.672;9.380;2024-02-28T04:17:32;28.35;;;15.98;;
78131;SDS011;67381;47.672;9.380;2024-02-28T04:19:59;30.17;;;17.27;;
78131;SDS011;67381;47.672;9.380;2024-02-28T04:22:31;27.58;;;15.40;;
78131;SDS011;67381;47.672;9.380;2024-02-28T04:24:58;28.42;;;14.98;;
78131;SDS011;67381;47.672;9.380;2024-02-28T04:27:25;26.52;;;13.88;;
78131;SDS011;67381;47.672;9.380;2024-02-28T04:29:52;29.20;;;15.50;;
78131;SDS011;67381;47.672;9.380;2024-02-28T04:32:19;26.80;;;15.73;;
78131;SDS011;67381;47.672;9.380;2024-02-28T04:34:46;26.17;;;15.30;;
78131;SDS011;67381;47.672;9.380;2024-02-28T04:37:13;26.58;;;16.10;;
78131;SDS011;67381;47.672;9.380;2024-02-28T04:39:41;26.65;;;15.68;;
78131;SDS011;67381;47.672;9.380;2024-02-28T04:42:08;28.23;;;14.68;;
78131;SDS011;67381;47.672;9.380;2024-02-28T04:44:35;25.30;;;16.30;;
78131;SDS011;67381;47.672;9.380;2024-02-28T04:47:02;29.30;;;15.25;;
78131;SDS011;67381;47.672;9.380;2024-02-28T04:49:30;29.58;;;15.35;;
78131;SDS011;67381;47.672;9.380;2024-02-28T04:51:57;28.00;;;15.45;;
78131;SDS011;67381;47.672;9.380;2024-02-28T04:54:25;27.05;;;15.48;;
78131;SDS011;67381;47.672;9.380;2024-02-28T04:56:52;27.42;;;14.77;;
78131;SDS011;67381;47.672;9.380;2024-02-28T04:59:19;25.20;;;13.85;;
78131;SDS011;67381;47.672;9.380;2024-02-28T05:01:46;26.92;;;14.95;;
78131;SDS011;67381;47.672;9.380;2024-02-28T05:04:14;25.33;;;14.95;;
78131;SDS011;67381;47.672;9.380;2024-02-28T05:06:41;26.98;;;14.77;;
78131;SDS011;67381;47.672;9.380;2024-02-28T05:09:08;27.90;;;15.05;;
78131;SDS011;67381;47.672;9.380;2024-02-28T05:11:35;25.77;;;14.57;;
78131;SDS011;67381;47.672;9.380;2024-02-28T05:14:02;25.48;;;14.15;;
78131;SDS011;67381;47.672;9.380;2024-02-28T05:16:29;27.88;;;15.40;;
78131;SDS011;67381;47.672;9.380;2024-02-28T05:18:56;28.48;;;16.02;;
78131;SDS011;67381;47.672;9.380;2024-02-28T05:21:24;26.42;;;14.50;;
78131;SDS011;67381;47.672;9.380;2024-02-28T05:23:51;29.63;;;15.45;;
78131;SDS011;67381;47.672;9.380;2024-02-28T05:26:18;26.23;;;14.45;;
78131;SDS011;67381;47.672;9.380;2024-02-28T05:28:45;24.23;;;14.40;;
78131;SDS011;67381;47.672;9.380;2024-02-28T05:31:25;24.48;;;14.38;;
78131;SDS011;67381;47.672;9.380;2024-02-28T05:33:55;27.50;;;16.17;;
78131;SDS011;67381;47.672;9.380;2024-02-28T05:36:26;29.23;;;14.57;;
78131;SDS011;67381;47.672;9.380;2024-02-28T05:38:54;27.55;;;15.30;;
78131;SDS011;67381;47.672;9.380;2024-02-28T05:41:22;25.08;;;13.80;;
78131;SDS011;67381;47.672;9.380;2024-02-28T05:43:49;25.85;;;14.05;;
78131;SDS011;67381;47.672;9.380;2024-02-28T05:46:17;26.42;;;15.68;;
78131;SDS011;67381;47.672;9.380;2024-02-28T05:48:44;26.65;;;15.32;;
78131;SDS011;67381;47.672;9.380;2024-02-28T05:51:11;28.85;;;15.50;;
78131;SDS011;67381;47.672;9.380;2024-02-28T05:53:39;30.27;;;15.23;;
78131;SDS011;67381;47.672;9.380;2024-02-28T05:56:07;29.40;;;14.60;;
78131;SDS011;67381;47.672;9.380;2024-02-28T05:58:40;30.33;;;15.60;;
78131;SDS011;67381;47.672;9.380;2024-02-28T06:01:08;27.30;;;15.60;;
78131;SDS011;67381;47.672;9.380;2024-02-28T06:03:36;30.95;;;16.67;;
78131;SDS011;67381;47.672;9.380;2024-02-28T06:06:03;27.40;;;15.38;;
78131;SDS011;67381;47.672;9.380;2024-02-28T06:08:34;27.60;;;15.65;;
78131;SDS011;67381;47.672;9.380;2024-02-28T06:11:01;29.00;;;15.90;;
78131;SDS011;67381;47.672;9.380;2024-02-28T06:13:28;30.70;;;14.77;;
78131;SDS011;67381;47.672;9.380;2024-02-28T06:15:56;29.95;;;15.57;;
78131;SDS011;67381;47.672;9.380;2024-02-28T06:18:23;32.20;;;16.90;;
78131;SDS011;67381;47.672;9.380;2024-02-28T06:20:56;30.17;;;16.65;;
78131;SDS011;67381;47.672;9.380;2024-02-28T06:23:23;26.20;;;15.88;;
78131;SDS011;67381;47.672;9.380;2024-02-28T06:25:53;31.50;;;16.88;;
78131;SDS011;67381;47.672;9.380;2024-02-28T06:28:20;30.10;;;17.38;;
78131;SDS011;67381;47.672;9.380;2024-02-28T06:30:47;26.20;;;16.15;;
78131;SDS011;67381;47.672;9.380;2024-02-28T06:33:14;29.13;;;17.00;;
78131;SDS011;67381;47.672;9.380;2024-02-28T06:35:42;32.50;;;15.27;;
78131;SDS011;67381;47.672;9.380;2024-02-28T06:38:09;29.33;;;15.48;;
78131;SDS011;67381;47.672;9.380;2024-02-28T06:40:36;36.28;;;19.42;;
78131;SDS011;67381;47.672;9.380;2024-02-28T06:43:03;26.00;;;15.23;;
78131;SDS011;67381;47.672;9.380;2024-02-28T06:45:31;27.77;;;15.98;;
78131;SDS011;67381;47.672;9.380;2024-02-28T06:47:58;25.98;;;14.35;;
78131;SDS011;67381;47.672;9.380;2024-02-28T06:50:26;27.50;;;14.82;;
78131;SDS011;67381;47.672;9.380;2024-02-28T06:52:53;27.30;;;15.23;;
78131;SDS011;67381;47.672;9.380;2024-02-28T06:55:20;27.70;;;17.20;;
78131;SDS011;67381;47.672;9.380;2024-02-28T06:57:47;34.47;;;15.82;;
78131;SDS011;67381;47.672;9.380;2024-02-28T07:00:15;26.35;;;15.10;;
78131;SDS011;67381;47.672;9.380;2024-02-28T07:02:42;24.52;;;15.32;;
78131;SDS011;67381;47.672;9.380;2024-02-28T07:05:10;27.17;;;14.82;;
78131;SDS011;67381;47.672;9.380;2024-02-28T07:07:37;24.77;;;14.88;;
78131;SDS011;67381;47.672;9.380;2024-02-28T07:10:04;28.75;;;15.02;;
78131;SDS011;67381;47.672;9.380;2024-02-28T07:12:32;28.05;;;15.73;;
78131;SDS011;67381;47.672;9.380;2024-02-28T07:14:59;27.95;;;16.05;;
78131;SDS011;67381;47.672;9.380;2024-02-28T07:17:26;34.30;;;16.73;;
78131;SDS011;67381;47.672;9.380;2024-02-28T07:19:53;32.00;;;18.00;;
78131;SDS011;67381;47.672;9.380;2024-02-28T07:22:20;30.83;;;17.08;;
78131;SDS011;67381;47.672;9.380;2024-02-28T07:24:48;32.35;;;16.52;;
78131;SDS011;67381;47.672;9.380;2024-02-28T07:27:15;30.60;;;16.40;;
78131;SDS011;67381;47.672;9.380;2024-02-28T07:29:43;30.15;;;16.35;;
78131;SDS011;67381;47.672;9.380;2024-02-28T07:32:10;29.98;;;16.15;;
78131;SDS011;67381;47.672;9.380;2024-02-28T07:34:38;27.95;;;15.57;;
78131;SDS011;67381;47.672;9.380;2024-02-28T07:37:06;23.63;;;13.50;;
78131;SDS011;67381;47.672;9.380;2024-02-28T07:39:33;33.10;;;16.58;;
78131;SDS011;67381;47.672;9.380;2024-02-28T07:42:00;26.70;;;15.23;;
78131;SDS011;67381;47.672;9.380;2024-02-28T07:44:27;25.67;;;14.63;;
78131;SDS011;67381;47.672;9.380;2024-02-28T07:47:00;28.02;;;15.13;;
78131;SDS011;67381;47.672;9.380;2024-02-28T07:49:27;25.25;;;15.27;;
78131;SDS011;67381;47.672;9.380;2024-02-28T07:51:54;26.00;;;16.10;;
78131;SDS011;67381;47.672;9.380;2024-02-28T07:54:21;27.83;;;17.05;;
78131;SDS011;67381;47.672;9.380;2024-02-28T07:56:49;32.17;;;16.52;;
78131;SDS011;67381;47.672;9.380;2024-02-28T07:59:16;34.10;;;17.80;;
78131;SDS011;67381;47.672;9.380;2024-02-28T08:01:43;30.25;;;17.85;;
78131;SDS011;67381;47.672;9.380;2024-02-28T08:04:10;33.08;;;17.88;;
78131;SDS011;67381;47.672;9.380;2024-02-28T08:06:39;33.78;;;18.17;;
78131;SDS011;67381;47.672;9.380;2024-02-28T08:09:06;30.50;;;17.10;;
78131;SDS011;67381;47.672;9.380;2024-02-28T08:11:35;44.03;;;23.10;;
78131;SDS011;67381;47.672;9.380;2024-02-28T08:14:02;68.28;;;31.17;;
78131;SDS011;67381;47.672;9.380;2024-02-28T08:16:30;51.15;;;27.30;;
78131;SDS011;67381;47.672;9.380;2024-02-28T08:18:58;66.30;;;35.00;;
78131;SDS011;67381;47.672;9.380;2024-02-28T08:21:25;52.33;;;25.45;;
78131;SDS011;67381;47.672;9.380;2024-02-28T08:23:53;40.20;;;22.05;;
78131;SDS011;67381;47.672;9.380;2024-02-28T08:26:21;38.10;;;20.85;;
78131;SDS011;67381;47.672;9.380;2024-02-28T08:28:48;32.58;;;17.33;;
78131;SDS011;67381;47.672;9.380;2024-02-28T08:31:15;39.50;;;19.77;;
78131;SDS011;67381;47.672;9.380;2024-02-28T08:33:43;34.00;;;17.90;;
78131;SDS011;67381;47.672;9.380;2024-02-28T08:36:10;34.53;;;18.33;;
78131;SDS011;67381;47.672;9.380;2024-02-28T08:38:37;40.13;;;22.42;;
78131;SDS011;67381;47.672;9.380;2024-02-28T08:41:06;40.53;;;22.33;;
78131;SDS011;67381;47.672;9.380;2024-02-28T08:43:37;33.67;;;19.27;;
78131;SDS011;67381;47.672;9.380;2024-02-28T08:46:05;32.50;;;17.58;;
78131;SDS011;67381;47.672;9.380;2024-02-28T08:48:33;33.28;;;17.77;;
78131;SDS011;67381;47.672;9.380;2024-02-28T08:51:00;32.83;;;17.80;;
78131;SDS011;67381;47.672;9.380;2024-02-28T08:53:27;32.45;;;18.02;;
78131;SDS011;67381;47.672;9.380;2024-02-28T08:55:54;32.85;;;18.77;;
78131;SDS011;67381;47.672;9.380;2024-02-28T08:58:21;34.55;;;18.08;;
78131;SDS011;67381;47.672;9.380;2024-02-28T09:00:48;36.25;;;17.95;;
78131;SDS011;67381;47.672;9.380;2024-02-28T09:03:16;31.17;;;17.15;;
78131;SDS011;67381;47.672;9.380;2024-02-28T09:05:43;36.38;;;18.17;;
78131;SDS011;67381;47.672;9.380;2024-02-28T09:08:10;34.47;;;17.15;;
78131;SDS011;67381;47.672;9.380;2024-02-28T09:10:39;32.60;;;17.95;;
78131;SDS011;67381;47.672;9.380;2024-02-28T09:13:06;34.45;;;18.13;;
78131;SDS011;67381;47.672;9.380;2024-02-28T09:15:34;31.30;;;17.42;;
78131;SDS011;67381;47.672;9.380;2024-02-28T09:18:01;32.95;;;17.95;;
78131;SDS011;67381;47.672;9.380;2024-02-28T09:20:28;34.03;;;17.77;;
78131;SDS011;67381;47.672;9.380;2024-02-28T09:22:55;29.92;;;16.88;;
78131;SDS011;67381;47.672;9.380;2024-02-28T09:25:23;31.70;;;17.35;;
78131;SDS011;67381;47.672;9.380;2024-02-28T09:27:51;33.15;;;18.23;;
78131;SDS011;67381;47.672;9.380;2024-02-28T09:30:18;31.80;;;17.75;;
78131;SDS011;67381;47.672;9.380;2024-02-28T09:32:45;30.65;;;17.08;;
78131;SDS011;67381;47.672;9.380;2024-02-28T09:35:14;33.00;;;17.85;;
78131;SDS011;67381;47.672;9.380;2024-02-28T09:37:41;31.73;;;17.33;;
78131;SDS011;67381;47.672;9.380;2024-02-28T09:40:09;37.97;;;17.75;;
78131;SDS011;67381;47.672;9.380;2024-02-28T09:42:36;36.63;;;19.25;;
78131;SDS011;67381;47.672;9.380;2024-02-28T09:45:04;40.78;;;20.55;;
78131;SDS011;67381;47.672;9.380;2024-02-28T09:47:31;36.70;;;17.08;;
78131;SDS011;67381;47.672;9.380;2024-02-28T09:49:58;34.58;;;19.23;;
78131;SDS011;67381;47.672;9.380;2024-02-28T09:52:26;34.55;;;17.25;;
78131;SDS011;67381;47.672;9.380;2024-02-28T09:54:54;31.35;;;17.95;;
78131;SDS011;67381;47.672;9.380;2024-02-28T09:57:22;34.47;;;17.48;;
78131;SDS011;67381;47.672;9.380;2024-02-28T09:59:58;33.88;;;18.13;;
78131;SDS011;67381;47.672;9.380;2024-02-28T10:02:26;36.50;;;18.83;;
78131;SDS011;67381;47.672;9.380;2024-02-28T10:04:54;36.78;;;18.17;;
78131;SDS011;67381;47.672;9.380;2024-02-28T10:07:22;36.35;;;19.40;;
78131;SDS011;67381;47.672;9.380;2024-02-28T10:09:49;32.60;;;16.73;;
78131;SDS011;67381;47.672;9.380;2024-02-28T10:12:16;35.08;;;18.23;;
78131;SDS011;67381;47.672;9.380;2024-02-28T10:14:45;34.72;;;18.58;;
78131;SDS011;67381;47.672;9.380;2024-02-28T10:17:12;37.00;;;19.33;;
78131;SDS011;67381;47.672;9.380;2024-02-28T10:19:39;35.53;;;18.05;;
78131;SDS011;67381;47.672;9.380;2024-02-28T10:22:06;31.75;;;16.38;;
78131;SDS011;67381;47.672;9.380;2024-02-28T10:24:33;35.65;;;17.48;;
78131;SDS011;67381;47.672;9.380;2024-02-28T10:27:01;34.05;;;17.55;;
78131;SDS011;67381;47.672;9.380;2024-02-28T10:29:28;29.55;;;17.23;;
78131;SDS011;67381;47.672;9.380;2024-02-28T10:31:55;29.33;;;15.77;;
78131;SDS011;67381;47.672;9.380;2024-02-28T10:34:22;31.45;;;17.92;;
78131;SDS011;67381;47.672;9.380;2024-02-28T10:36:50;34.38;;;18.08;;
78131;SDS011;67381;47.672;9.380;2024-02-28T10:39:17;34.25;;;17.90;;
78131;SDS011;67381;47.672;9.380;2024-02-28T10:41:44;32.42;;;16.73;;
78131;SDS011;67381;47.672;9.380;2024-02-28T10:44:13;31.52;;;16.88;;
78131;SDS011;67381;47.672;9.380;2024-02-28T10:46:41;31.30;;;17.42;;
78131;SDS011;67381;47.672;9.380;2024-02-28T10:49:09;36.35;;;17.98;;
78131;SDS011;67381;47.672;9.380;2024-02-28T10:51:37;34.35;;;19.67;;
78131;SDS011;67381;47.672;9.380;2024-02-28T10:54:11;33.42;;;19.17;;
78131;SDS011;67381;47.672;9.380;2024-02-28T10:56:39;32.72;;;17.20;;
78131;SDS011;67381;47.672;9.380;2024-02-28T10:59:08;30.55;;;17.52;;
78131;SDS011;67381;47.672;9.380;2024-02-28T11:01:37;39.10;;;19.15;;
78131;SDS011;67381;47.672;9.380;2024-02-28T11:04:05;34.38;;;18.15;;
78131;SDS011;67381;47.672;9.380;2024-02-28T11:06:32;29.00;;;17.70;;
78131;SDS011;67381;47.672;9.380;2024-02-28T11:09:00;34.33;;;18.65;;
78131;SDS011;67381;47.672;9.380;2024-02-28T11:11:30;33.60;;;17.63;;
78131;SDS011;67381;47.672;9.380;2024-02-28T11:13:59;32.50;;;17.75;;
78131;SDS011;67381;47.672;9.380;2024-02-28T11:16:29;30.52;;;18.02;;
78131;SDS011;67381;47.672;9.380;2024-02-28T11:18:57;31.95;;;17.38;;
78131;SDS011;67381;47.672;9.380;2024-02-28T11:21:25;31.58;;;17.52;;
78131;SDS011;67381;47.672;9.380;2024-02-28T11:23:57;32.70;;;18.10;;
78131;SDS011;67381;47.672;9.380;2024-02-28T11:26:25;29.60;;;16.67;;
78131;SDS011;67381;47.672;9.380;2024-02-28T11:28:54;36.42;;;19.02;;
78131;SDS011;67381;47.672;9.380;2024-02-28T11:31:21;32.97;;;16.63;;
78131;SDS011;67381;47.672;9.380;2024-02-28T11:33:48;33.80;;;17.88;;
78131;SDS011;67381;47.672;9.380;2024-02-28T11:36:16;30.88;;;17.13;;
78131;SDS011;67381;47.672;9.380;2024-02-28T11:38:43;34.63;;;16.77;;
78131;SDS011;67381;47.672;9.380;2024-02-28T11:41:11;28.60;;;15.90;;
78131;SDS011;67381;47.672;9.380;2024-02-28T11:43:38;28.35;;;15.88;;
78131;SDS011;67381;47.672;9.380;2024-02-28T11:46:09;31.58;;;16.27;;
78131;SDS011;67381;47.672;9.380;2024-02-28T11:48:39;26.67;;;15.88;;
78131;SDS011;67381;47.672;9.380;2024-02-28T11:51:07;27.98;;;15.95;;
78131;SDS011;67381;47.672;9.380;2024-02-28T11:53:34;27.98;;;17.40;;
78131;SDS011;67381;47.672;9.380;2024-02-28T11:56:01;26.65;;;16.02;;
78131;SDS011;67381;47.672;9.380;2024-02-28T11:58:30;26.52;;;14.00;;
78131;SDS011;67381;47.672;9.380;2024-02-28T12:00:57;23.45;;;13.20;;
78131;SDS011;67381;47.672;9.380;2024-02-28T12:03:25;28.48;;;15.65;;
78131;SDS011;67381;47.672;9.380;2024-02-28T12:05:52;30.90;;;17.08;;
78131;SDS011;67381;47.672;9.380;2024-02-28T12:08:19;34.63;;;18.95;;
78131;SDS011;67381;47.672;9.380;2024-02-28T12:10:47;33.15;;;18.05;;
78131;SDS011;67381;47.672;9.380;2024-02-28T12:13:17;35.05;;;18.85;;
78131;SDS011;67381;47.672;9.380;2024-02-28T12:15:45;35.88;;;19.42;;
78131;SDS011;67381;47.672;9.380;2024-02-28T12:18:12;37.80;;;18.90;;
78131;SDS011;67381;47.672;9.380;2024-02-28T12:20:41;37.83;;;18.73;;
78131;SDS011;67381;47.672;9.380;2024-02-28T12:23:08;33.58;;;17.98;;
78131;SDS011;67381;47.672;9.380;2024-02-28T12:25:36;37.95;;;19.10;;
78131;SDS011;67381;47.672;9.380;2024-02-28T12:28:03;37.47;;;19.73;;
78131;SDS011;67381;47.672;9.380;2024-02-28T12:30:38;31.83;;;17.90;;
78131;SDS011;67381;47.672;9.380;2024-02-28T12:33:05;36.65;;;19.30;;
78131;SDS011;67381;47.672;9.380;2024-02-28T12:35:32;36.47;;;19.05;;
78131;SDS011;67381;47.672;9.380;2024-02-28T12:38:00;38.10;;;18.88;;
78131;SDS011;67381;47.672;9.380;2024-02-28T12:40:27;35.70;;;18.55;;
78131;SDS011;67381;47.672;9.380;2024-02-28T12:42:54;36.00;;;19.48;;
78131;SDS011;67381;47.672;9.380;2024-02-28T12:45:21;38.92;;;20.10;;
78131;SDS011;67381;47.672;9.380;2024-02-28T12:47:50;35.72;;;19.17;;
78131;SDS011;67381;47.672;9.380;2024-02-28T12:50:18;31.00;;;17.98;;
78131;SDS011;67381;47.672;9.380;2024-02-28T12:52:45;33.72;;;18.17;;
78131;SDS011;67381;47.672;9.380;2024-02-28T12:55:12;35.67;;;18.50;;
78131;SDS011;67381;47.672;9.380;2024-02-28T12:57:41;36.97;;;18.77;;
78131;SDS011;67381;47.672;9.380;2024-02-28T13:00:08;38.20;;;19.98;;
78131;SDS011;67381;47.672;9.380;2024-02-28T13:02:35;36.00;;;19.40;;
78131;SDS011;67381;47.672;9.380;2024-02-28T13:05:02;38.90;;;19.17;;
78131;SDS011;67381;47.672;9.380;2024-02-28T13:07:30;29.92;;;17.50;;
78131;SDS011;67381;47.672;9.380;2024-02-28T13:09:57;32.22;;;18.00;;
78131;SDS011;67381;47.672;9.380;2024-02-28T13:12:24;31.85;;;17.13;;
78131;SDS011;67381;47.672;9.380;2024-02-28T13:14:51;31.58;;;17.45;;
78131;SDS011;67381;47.672;9.380;2024-02-28T13:17:18;34.28;;;17.25;;
78131;SDS011;67381;47.672;9.380;2024-02-28T13:19:46;29.63;;;16.75;;
78131;SDS011;67381;47.672;9.380;2024-02-28T13:22:13;30.33;;;16.98;;
78131;SDS011;67381;47.672;9.380;2024-02-28T13:24:40;30.45;;;16.92;;
78131;SDS011;67381;47.672;9.380;2024-02-28T13:27:07;31.40;;;16.33;;
78131;SDS011;67381;47.672;9.380;2024-02-28T13:29:36;27.85;;;17.45;;
78131;SDS011;67381;47.672;9.380;2024-02-28T13:32:03;29.73;;;16.88;;
78131;SDS011;67381;47.672;9.380;2024-02-28T13:34:30;29.70;;;18.40;;
78131;SDS011;67381;47.672;9.380;2024-02-28T13:36:57;32.08;;;18.15;;
78131;SDS011;67381;47.672;9.380;2024-02-28T13:39:24;29.85;;;16.42;;
78131;SDS011;67381;47.672;9.380;2024-02-28T13:41:53;27.95;;;16.73;;
78131;SDS011;67381;47.672;9.380;2024-02-28T13:44:20;33.75;;;18.75;;
78131;SDS011;67381;47.672;9.380;2024-02-28T13:46:47;30.85;;;17.52;;
78131;SDS011;67381;47.672;9.380;2024-02-28T13:49:16;30.80;;;16.88;;
78131;SDS011;67381;47.672;9.380;2024-02-28T13:51:44;30.13;;;15.90;;
78131;SDS011;67381;47.672;9.380;2024-02-28T13:54:11;28.70;;;17.02;;
78131;SDS011;67381;47.672;9.380;2024-02-28T13:56:38;31.63;;;18.23;;
78131;SDS011;67381;47.672;9.380;2024-02-28T13:59:05;29.48;;;15.38;;
78131;SDS011;67381;47.672;9.380;2024-02-28T14:01:33;31.85;;;17.17;;
78131;SDS011;67381;47.672;9.380;2024-02-28T14:04:00;34.47;;;16.25;;
78131;SDS011;67381;47.672;9.380;2024-02-28T14:06:28;32.38;;;17.75;;
78131;SDS011;67381;47.672;9.380;2024-02-28T14:08:55;29.00;;;15.63;;
78131;SDS011;67381;47.672;9.380;2024-02-28T14:11:22;30.05;;;16.60;;
78131;SDS011;67381;47.672;9.380;2024-02-28T14:13:49;32.10;;;18.05;;
78131;SDS011;67381;47.672;9.380;2024-02-28T14:16:16;31.80;;;17.60;;
78131;SDS011;67381;47.672;9.380;2024-02-28T14:18:46;27.27;;;16.38;;
78131;SDS011;67381;47.672;9.380;2024-02-28T14:21:13;29.20;;;16.67;;
78131;SDS011;67381;47.672;9.380;2024-02-28T14:23:40;30.98;;;18.70;;